sensor_id;sensor_type;location;lat;lon;timestamp;P1;durP1;ratioP1;P2;durP2;ratioP2
3587;SDS011;1808;53.596;9.972;2022-11-20T00:00:49;12.43;;;3.85;;
3587;SDS011;1808;53.596;9.972;2022-11-20T00:03:15;7.80;;;4.47;;
3587;SDS011;1808;53.596;9.972;2022-11-20T00:05:42;8.13;;;4.45;;
3587;SDS011;1808;53.596;9.972;2022-11-20T00:08:09;7.07;;;3.58;;
3587;SDS011;1808;53.596;9.972;2022-11-20T00:10:37;9.57;;;4.15;;
3587;SDS011;1808;53.596;9.972;2022-11-20T00:13:04;5.53;;;2.70;;
3587;SDS011;1808;53.596;9.972;2022-11-20T00:15:30;9.77;;;4.05;;
3587;SDS011;1808;53.596;9.972;2022-11-20T00:17:57;8.98;;;5.18;;
3587;SDS011;1808;53.596;9.972;2022-11-20T00:20:23;6.57;;;3.03;;
3587;SDS011;1808;53.596;9.972;2022-11-20T00:22:50;6.57;;;3.42;;
3587;SDS011;1808;53.596;9.972;2022-11-20T00:25:16;8.93;;;3.22;;
3587;SDS011;1808;53.596;9.972;2022-11-20T00:27:44;6.97;;;4.05;;
3587;SDS011;1808;53.596;9.972;2022-11-20T00:30:11;6.82;;;3.63;;
3587;SDS011;1808;53.596;9.972;2022-11-20T00:32:37;5.68;;;3.50;;
3587;SDS011;1808;53.596;9.972;2022-11-20T00:35:04;8.77;;;3.50;;
3587;SDS011;1808;53.596;9.972;2022-11-20T00:37:31;8.30;;;3.88;;
3587;SDS011;1808;53.596;9.972;2022-11-20T00:39:57;5.90;;;3.15;;
3587;SDS011;1808;53.596;9.972;2022-11-20T00:42:24;7.18;;;3.72;;
3587;SDS011;1808;53.596;9.972;2022-11-20T00:44:51;8.38;;;3.80;;
3587;SDS011;1808;53.596;9.972;2022-11-20T00:47:18;7.30;;;4.85;;
3587;SDS011;1808;53.596;9.972;2022-11-20T00:49:44;7.38;;;3.63;;
3587;SDS011;1808;53.596;9.972;2022-11-20T00:52:11;7.35;;;3.47;;
3587;SDS011;1808;53.596;9.972;2022-11-20T00:54:37;12.65;;;4.65;;
3587;SDS011;1808;53.596;9.972;2022-11-20T00:57:04;7.28;;;4.15;;
3587;SDS011;1808;53.596;9.972;2022-11-20T00:59:30;5.13;;;3.42;;
3587;SDS011;1808;53.596;9.972;2022-11-20T01:01:58;6.70;;;3.92;;
3587;SDS011;1808;53.596;9.972;2022-11-20T01:04:25;8.10;;;4.40;;
3587;SDS011;1808;53.596;9.972;2022-11-20T01:06:51;5.90;;;2.70;;
3587;SDS011;1808;53.596;9.972;2022-11-20T01:09:17;7.15;;;3.88;;
3587;SDS011;1808;53.596;9.972;2022-11-20T01:11:44;7.28;;;3.70;;
3587;SDS011;1808;53.596;9.972;2022-11-20T01:14:12;9.32;;;3.70;;
3587;SDS011;1808;53.596;9.972;2022-11-20T01:16:41;9.85;;;5.03;;
3587;SDS011;1808;53.596;9.972;2022-11-20T01:19:10;9.57;;;6.00;;
3587;SDS011;1808;53.596;9.972;2022-11-20T01:21:39;6.60;;;3.85;;
3587;SDS011;1808;53.596;9.972;2022-11-20T01:24:07;4.95;;;3.25;;
3587;SDS011;1808;53.596;9.972;2022-11-20T01:26:36;9.13;;;4.85;;
3587;SDS011;1808;53.596;9.972;2022-11-20T01:29:04;9.35;;;4.97;;
3587;SDS011;1808;53.596;9.972;2022-11-20T01:31:31;10.13;;;5.32;;
3587;SDS011;1808;53.596;9.972;2022-11-20T01:34:00;7.45;;;2.40;;
3587;SDS011;1808;53.596;9.972;2022-11-20T01:36:29;12.00;;;4.88;;
3587;SDS011;1808;53.596;9.972;2022-11-20T01:38:57;9.95;;;4.80;;
3587;SDS011;1808;53.596;9.972;2022-11-20T01:41:24;9.60;;;5.07;;
3587;SDS011;1808;53.596;9.972;2022-11-20T01:44:10;9.10;;;4.40;;
3587;SDS011;1808;53.596;9.972;2022-11-20T01:46:40;7.60;;;4.13;;
3587;SDS011;1808;53.596;9.972;2022-11-20T01:49:20;8.88;;;4.70;;
3587;SDS011;1808;53.596;9.972;2022-11-20T01:51:50;7.50;;;4.70;;
3587;SDS011;1808;53.596;9.972;2022-11-20T01:54:21;12.15;;;5.18;;
3587;SDS011;1808;53.596;9.972;2022-11-20T01:56:52;8.52;;;4.80;;
3587;SDS011;1808;53.596;9.972;2022-11-20T01:59:21;8.57;;;4.40;;
3587;SDS011;1808;53.596;9.972;2022-11-20T02:01:49;8.93;;;5.03;;
3587;SDS011;1808;53.596;9.972;2022-11-20T02:04:15;9.68;;;4.93;;
3587;SDS011;1808;53.596;9.972;2022-11-20T02:06:42;12.40;;;5.05;;
3587;SDS011;1808;53.596;9.972;2022-11-20T02:09:11;10.35;;;5.90;;
3587;SDS011;1808;53.596;9.972;2022-11-20T02:11:38;9.73;;;5.88;;
3587;SDS011;1808;53.596;9.972;2022-11-20T02:14:04;8.80;;;4.72;;
3587;SDS011;1808;53.596;9.972;2022-11-20T02:16:30;13.85;;;7.55;;
3587;SDS011;1808;53.596;9.972;2022-11-20T02:19:02;11.05;;;6.25;;
3587;SDS011;1808;53.596;9.972;2022-11-20T02:21:33;11.23;;;5.60;;
3587;SDS011;1808;53.596;9.972;2022-11-20T02:24:12;9.50;;;5.57;;
3587;SDS011;1808;53.596;9.972;2022-11-20T02:26:41;11.55;;;6.47;;
3587;SDS011;1808;53.596;9.972;2022-11-20T02:29:10;5.07;;;3.45;;
3587;SDS011;1808;53.596;9.972;2022-11-20T02:31:37;8.38;;;5.60;;
3587;SDS011;1808;53.596;9.972;2022-11-20T02:34:04;6.78;;;3.50;;
3587;SDS011;1808;53.596;9.972;2022-11-20T02:36:31;11.52;;;6.68;;
3587;SDS011;1808;53.596;9.972;2022-11-20T02:39:00;8.93;;;5.30;;
3587;SDS011;1808;53.596;9.972;2022-11-20T02:41:31;12.13;;;5.90;;
3587;SDS011;1808;53.596;9.972;2022-11-20T02:43:58;10.50;;;5.40;;
3587;SDS011;1808;53.596;9.972;2022-11-20T02:46:25;4.40;;;3.13;;
3587;SDS011;1808;53.596;9.972;2022-11-20T02:48:51;11.27;;;6.03;;
3587;SDS011;1808;53.596;9.972;2022-11-20T02:51:17;8.27;;;4.80;;
3587;SDS011;1808;53.596;9.972;2022-11-20T02:53:44;10.10;;;4.65;;
3587;SDS011;1808;53.596;9.972;2022-11-20T02:56:10;10.88;;;7.68;;
3587;SDS011;1808;53.596;9.972;2022-11-20T02:58:38;9.85;;;6.55;;
3587;SDS011;1808;53.596;9.972;2022-11-20T03:01:04;7.95;;;4.45;;
3587;SDS011;1808;53.596;9.972;2022-11-20T03:03:30;10.73;;;5.88;;
3587;SDS011;1808;53.596;9.972;2022-11-20T03:05:58;9.40;;;5.97;;
3587;SDS011;1808;53.596;9.972;2022-11-20T03:08:25;12.13;;;7.32;;
3587;SDS011;1808;53.596;9.972;2022-11-20T03:10:51;10.57;;;5.22;;
3587;SDS011;1808;53.596;9.972;2022-11-20T03:13:18;8.73;;;5.93;;
3587;SDS011;1808;53.596;9.972;2022-11-20T03:15:45;8.77;;;6.10;;
3587;SDS011;1808;53.596;9.972;2022-11-20T03:18:12;10.73;;;6.20;;
3587;SDS011;1808;53.596;9.972;2022-11-20T03:20:39;8.27;;;5.90;;
3587;SDS011;1808;53.596;9.972;2022-11-20T03:23:06;10.88;;;6.95;;
3587;SDS011;1808;53.596;9.972;2022-11-20T03:25:32;9.18;;;4.13;;
3587;SDS011;1808;53.596;9.972;2022-11-20T03:27:58;11.30;;;6.80;;
3587;SDS011;1808;53.596;9.972;2022-11-20T03:30:24;8.45;;;4.03;;
3587;SDS011;1808;53.596;9.972;2022-11-20T03:32:53;9.10;;;5.28;;
3587;SDS011;1808;53.596;9.972;2022-11-20T03:35:20;9.65;;;6.65;;
3587;SDS011;1808;53.596;9.972;2022-11-20T03:37:46;7.78;;;4.65;;
3587;SDS011;1808;53.596;9.972;2022-11-20T03:40:13;7.88;;;5.22;;
3587;SDS011;1808;53.596;9.972;2022-11-20T03:42:39;9.15;;;5.00;;
3587;SDS011;1808;53.596;9.972;2022-11-20T03:45:12;9.88;;;5.40;;
3587;SDS011;1808;53.596;9.972;2022-11-20T03:47:38;9.00;;;5.10;;
3587;SDS011;1808;53.596;9.972;2022-11-20T03:50:06;6.53;;;4.07;;
3587;SDS011;1808;53.596;9.972;2022-11-20T03:52:33;13.25;;;6.93;;
3587;SDS011;1808;53.596;9.972;2022-11-20T03:55:00;5.65;;;3.67;;
3587;SDS011;1808;53.596;9.972;2022-11-20T03:57:26;9.52;;;5.38;;
3587;SDS011;1808;53.596;9.972;2022-11-20T03:59:52;8.25;;;5.80;;
3587;SDS011;1808;53.596;9.972;2022-11-20T04:02:18;9.93;;;5.47;;
3587;SDS011;1808;53.596;9.972;2022-11-20T04:04:45;6.28;;;4.13;;
3587;SDS011;1808;53.596;9.972;2022-11-20T04:07:12;9.93;;;4.53;;
3587;SDS011;1808;53.596;9.972;2022-11-20T04:09:39;10.30;;;6.85;;
3587;SDS011;1808;53.596;9.972;2022-11-20T04:12:05;9.27;;;5.10;;
3587;SDS011;1808;53.596;9.972;2022-11-20T04:14:31;12.60;;;6.15;;
3587;SDS011;1808;53.596;9.972;2022-11-20T04:16:58;8.57;;;5.55;;
3587;SDS011;1808;53.596;9.972;2022-11-20T04:19:24;9.80;;;6.75;;
3587;SDS011;1808;53.596;9.972;2022-11-20T04:21:50;10.85;;;6.07;;
3587;SDS011;1808;53.596;9.972;2022-11-20T04:24:18;5.47;;;4.25;;
3587;SDS011;1808;53.596;9.972;2022-11-20T04:26:44;9.90;;;6.35;;
3587;SDS011;1808;53.596;9.972;2022-11-20T04:29:11;7.43;;;4.57;;
3587;SDS011;1808;53.596;9.972;2022-11-20T04:31:37;11.65;;;6.32;;
3587;SDS011;1808;53.596;9.972;2022-11-20T04:34:04;10.25;;;6.30;;
3587;SDS011;1808;53.596;9.972;2022-11-20T04:36:32;11.45;;;5.68;;
3587;SDS011;1808;53.596;9.972;2022-11-20T04:39:00;10.27;;;6.97;;
3587;SDS011;1808;53.596;9.972;2022-11-20T04:41:30;14.30;;;7.85;;
3587;SDS011;1808;53.596;9.972;2022-11-20T04:43:57;10.43;;;6.47;;
3587;SDS011;1808;53.596;9.972;2022-11-20T04:46:28;8.57;;;6.28;;
3587;SDS011;1808;53.596;9.972;2022-11-20T04:48:55;10.65;;;6.47;;
3587;SDS011;1808;53.596;9.972;2022-11-20T04:51:21;9.50;;;6.20;;
3587;SDS011;1808;53.596;9.972;2022-11-20T04:53:48;8.20;;;4.07;;
3587;SDS011;1808;53.596;9.972;2022-11-20T04:56:14;8.13;;;5.25;;
3587;SDS011;1808;53.596;9.972;2022-11-20T04:58:42;8.63;;;6.20;;
3587;SDS011;1808;53.596;9.972;2022-11-20T05:01:09;7.88;;;5.13;;
3587;SDS011;1808;53.596;9.972;2022-11-20T05:03:37;12.00;;;7.45;;
3587;SDS011;1808;53.596;9.972;2022-11-20T05:06:04;9.68;;;5.72;;
3587;SDS011;1808;53.596;9.972;2022-11-20T05:08:31;9.02;;;6.22;;
3587;SDS011;1808;53.596;9.972;2022-11-20T05:11:01;9.98;;;6.15;;
3587;SDS011;1808;53.596;9.972;2022-11-20T05:13:28;10.95;;;7.53;;
3587;SDS011;1808;53.596;9.972;2022-11-20T05:15:59;11.68;;;6.72;;
3587;SDS011;1808;53.596;9.972;2022-11-20T05:18:27;11.00;;;6.43;;
3587;SDS011;1808;53.596;9.972;2022-11-20T05:20:54;11.60;;;6.65;;
3587;SDS011;1808;53.596;9.972;2022-11-20T05:23:21;9.18;;;6.53;;
3587;SDS011;1808;53.596;9.972;2022-11-20T05:25:47;9.18;;;5.80;;
3587;SDS011;1808;53.596;9.972;2022-11-20T05:28:14;10.68;;;6.53;;
3587;SDS011;1808;53.596;9.972;2022-11-20T05:30:40;14.43;;;6.90;;
3587;SDS011;1808;53.596;9.972;2022-11-20T05:33:08;11.02;;;6.90;;
3587;SDS011;1808;53.596;9.972;2022-11-20T05:35:35;11.38;;;6.63;;
3587;SDS011;1808;53.596;9.972;2022-11-20T05:38:01;13.40;;;6.85;;
3587;SDS011;1808;53.596;9.972;2022-11-20T05:40:28;11.52;;;6.30;;
3587;SDS011;1808;53.596;9.972;2022-11-20T05:42:54;9.30;;;6.00;;
3587;SDS011;1808;53.596;9.972;2022-11-20T05:45:20;12.00;;;6.22;;
3587;SDS011;1808;53.596;9.972;2022-11-20T05:47:46;14.48;;;7.18;;
3587;SDS011;1808;53.596;9.972;2022-11-20T05:50:14;11.40;;;6.75;;
3587;SDS011;1808;53.596;9.972;2022-11-20T05:52:41;9.30;;;5.72;;
3587;SDS011;1808;53.596;9.972;2022-11-20T05:55:08;11.25;;;6.03;;
3587;SDS011;1808;53.596;9.972;2022-11-20T05:57:34;9.75;;;5.60;;
3587;SDS011;1808;53.596;9.972;2022-11-20T06:00:01;9.88;;;5.30;;
3587;SDS011;1808;53.596;9.972;2022-11-20T06:02:27;10.35;;;6.30;;
3587;SDS011;1808;53.596;9.972;2022-11-20T06:04:54;11.70;;;5.57;;
3587;SDS011;1808;53.596;9.972;2022-11-20T06:07:21;9.10;;;5.80;;
3587;SDS011;1808;53.596;9.972;2022-11-20T06:09:48;10.27;;;5.75;;
3587;SDS011;1808;53.596;9.972;2022-11-20T06:12:14;12.18;;;8.48;;
3587;SDS011;1808;53.596;9.972;2022-11-20T06:14:40;14.35;;;6.85;;
3587;SDS011;1808;53.596;9.972;2022-11-20T06:17:07;14.30;;;8.18;;
3587;SDS011;1808;53.596;9.972;2022-11-20T06:19:33;9.45;;;6.20;;
3587;SDS011;1808;53.596;9.972;2022-11-20T06:21:59;13.60;;;8.48;;
3587;SDS011;1808;53.596;9.972;2022-11-20T06:24:27;16.52;;;9.07;;
3587;SDS011;1808;53.596;9.972;2022-11-20T06:26:53;12.98;;;8.32;;
3587;SDS011;1808;53.596;9.972;2022-11-20T06:29:19;14.55;;;8.90;;
3587;SDS011;1808;53.596;9.972;2022-11-20T06:31:46;24.05;;;9.95;;
3587;SDS011;1808;53.596;9.972;2022-11-20T06:34:12;18.20;;;8.73;;
3587;SDS011;1808;53.596;9.972;2022-11-20T06:36:39;15.02;;;8.63;;
3587;SDS011;1808;53.596;9.972;2022-11-20T06:39:05;15.02;;;10.02;;
3587;SDS011;1808;53.596;9.972;2022-11-20T06:41:32;13.45;;;7.50;;
3587;SDS011;1808;53.596;9.972;2022-11-20T06:43:59;13.55;;;8.95;;
3587;SDS011;1808;53.596;9.972;2022-11-20T06:46:25;14.85;;;7.88;;
3587;SDS011;1808;53.596;9.972;2022-11-20T06:48:52;14.13;;;7.60;;
3587;SDS011;1808;53.596;9.972;2022-11-20T06:51:18;11.68;;;6.57;;
3587;SDS011;1808;53.596;9.972;2022-11-20T06:53:44;10.50;;;7.10;;
3587;SDS011;1808;53.596;9.972;2022-11-20T06:56:11;11.77;;;7.15;;
3587;SDS011;1808;53.596;9.972;2022-11-20T06:58:38;11.18;;;7.75;;
3587;SDS011;1808;53.596;9.972;2022-11-20T07:01:05;14.50;;;6.50;;
3587;SDS011;1808;53.596;9.972;2022-11-20T07:03:33;13.50;;;8.27;;
3587;SDS011;1808;53.596;9.972;2022-11-20T07:06:00;7.25;;;4.57;;
3587;SDS011;1808;53.596;9.972;2022-11-20T07:08:27;15.20;;;8.77;;
3587;SDS011;1808;53.596;9.972;2022-11-20T07:10:56;8.57;;;5.30;;
3587;SDS011;1808;53.596;9.972;2022-11-20T07:13:23;5.53;;;3.40;;
3587;SDS011;1808;53.596;9.972;2022-11-20T07:15:51;11.98;;;6.60;;
3587;SDS011;1808;53.596;9.972;2022-11-20T07:18:18;9.63;;;6.43;;
3587;SDS011;1808;53.596;9.972;2022-11-20T07:20:44;9.15;;;5.57;;
3587;SDS011;1808;53.596;9.972;2022-11-20T07:23:10;7.25;;;4.15;;
3587;SDS011;1808;53.596;9.972;2022-11-20T07:25:36;12.18;;;7.95;;
3587;SDS011;1808;53.596;9.972;2022-11-20T07:28:03;13.45;;;8.70;;
3587;SDS011;1808;53.596;9.972;2022-11-20T07:30:30;5.85;;;4.03;;
3587;SDS011;1808;53.596;9.972;2022-11-20T07:32:58;12.85;;;7.72;;
3587;SDS011;1808;53.596;9.972;2022-11-20T07:35:26;13.05;;;8.35;;
3587;SDS011;1808;53.596;9.972;2022-11-20T07:37:52;13.80;;;8.00;;
3587;SDS011;1808;53.596;9.972;2022-11-20T07:40:18;11.02;;;6.32;;
3587;SDS011;1808;53.596;9.972;2022-11-20T07:42:48;11.55;;;8.35;;
3587;SDS011;1808;53.596;9.972;2022-11-20T07:45:15;11.07;;;7.28;;
3587;SDS011;1808;53.596;9.972;2022-11-20T07:47:41;5.93;;;4.18;;
3587;SDS011;1808;53.596;9.972;2022-11-20T07:50:09;7.93;;;5.45;;
3587;SDS011;1808;53.596;9.972;2022-11-20T07:52:36;11.40;;;6.72;;
3587;SDS011;1808;53.596;9.972;2022-11-20T07:55:02;8.68;;;5.72;;
3587;SDS011;1808;53.596;9.972;2022-11-20T07:57:30;10.85;;;4.97;;
3587;SDS011;1808;53.596;9.972;2022-11-20T07:59:56;8.10;;;5.80;;
3587;SDS011;1808;53.596;9.972;2022-11-20T08:02:23;9.43;;;4.95;;
3587;SDS011;1808;53.596;9.972;2022-11-20T08:04:49;10.95;;;7.30;;
3587;SDS011;1808;53.596;9.972;2022-11-20T08:07:17;7.10;;;4.35;;
3587;SDS011;1808;53.596;9.972;2022-11-20T08:09:43;7.78;;;5.03;;
3587;SDS011;1808;53.596;9.972;2022-11-20T08:12:10;12.20;;;8.07;;
3587;SDS011;1808;53.596;9.972;2022-11-20T08:15:00;13.88;;;7.53;;
3587;SDS011;1808;53.596;9.972;2022-11-20T08:17:27;11.25;;;6.40;;
3587;SDS011;1808;53.596;9.972;2022-11-20T08:19:53;11.52;;;6.10;;
3587;SDS011;1808;53.596;9.972;2022-11-20T08:22:21;5.80;;;2.90;;
3587;SDS011;1808;53.596;9.972;2022-11-20T08:24:47;9.10;;;5.85;;
3587;SDS011;1808;53.596;9.972;2022-11-20T08:27:14;7.82;;;4.80;;
3587;SDS011;1808;53.596;9.972;2022-11-20T08:29:40;9.65;;;5.63;;
3587;SDS011;1808;53.596;9.972;2022-11-20T08:32:07;9.65;;;5.82;;
3587;SDS011;1808;53.596;9.972;2022-11-20T08:34:33;8.00;;;5.18;;
3587;SDS011;1808;53.596;9.972;2022-11-20T08:37:00;8.80;;;5.13;;
3587;SDS011;1808;53.596;9.972;2022-11-20T08:39:28;9.18;;;5.55;;
3587;SDS011;1808;53.596;9.972;2022-11-20T08:41:55;5.65;;;3.17;;
3587;SDS011;1808;53.596;9.972;2022-11-20T08:44:21;9.23;;;4.80;;
3587;SDS011;1808;53.596;9.972;2022-11-20T08:46:48;6.05;;;3.28;;
3587;SDS011;1808;53.596;9.972;2022-11-20T08:49:14;5.15;;;3.13;;
3587;SDS011;1808;53.596;9.972;2022-11-20T08:51:41;8.65;;;4.38;;
3587;SDS011;1808;53.596;9.972;2022-11-20T08:54:07;7.50;;;3.97;;
3587;SDS011;1808;53.596;9.972;2022-11-20T08:56:35;8.00;;;4.68;;
3587;SDS011;1808;53.596;9.972;2022-11-20T08:59:02;7.15;;;4.15;;
3587;SDS011;1808;53.596;9.972;2022-11-20T09:01:28;7.25;;;4.10;;
3587;SDS011;1808;53.596;9.972;2022-11-20T09:03:55;9.20;;;4.60;;
3587;SDS011;1808;53.596;9.972;2022-11-20T09:06:21;6.00;;;3.22;;
3587;SDS011;1808;53.596;9.972;2022-11-20T09:08:51;7.57;;;5.25;;
3587;SDS011;1808;53.596;9.972;2022-11-20T09:11:17;7.45;;;4.85;;
3587;SDS011;1808;53.596;9.972;2022-11-20T09:13:45;9.20;;;3.38;;
3587;SDS011;1808;53.596;9.972;2022-11-20T09:16:11;7.85;;;4.70;;
3587;SDS011;1808;53.596;9.972;2022-11-20T09:18:38;9.63;;;4.57;;
3587;SDS011;1808;53.596;9.972;2022-11-20T09:21:05;9.27;;;4.70;;
3587;SDS011;1808;53.596;9.972;2022-11-20T09:23:32;10.05;;;5.65;;
3587;SDS011;1808;53.596;9.972;2022-11-20T09:26:01;10.15;;;5.18;;
3587;SDS011;1808;53.596;9.972;2022-11-20T09:28:29;8.07;;;4.05;;
3587;SDS011;1808;53.596;9.972;2022-11-20T09:30:57;9.13;;;4.95;;
3587;SDS011;1808;53.596;9.972;2022-11-20T09:33:23;10.65;;;6.45;;
3587;SDS011;1808;53.596;9.972;2022-11-20T09:35:49;5.63;;;3.38;;
3587;SDS011;1808;53.596;9.972;2022-11-20T09:38:16;6.53;;;4.05;;
3587;SDS011;1808;53.596;9.972;2022-11-20T09:40:44;7.15;;;4.40;;
3587;SDS011;1808;53.596;9.972;2022-11-20T09:43:12;7.40;;;4.60;;
3587;SDS011;1808;53.596;9.972;2022-11-20T09:45:45;10.05;;;6.68;;
3587;SDS011;1808;53.596;9.972;2022-11-20T09:48:24;7.13;;;4.57;;
3587;SDS011;1808;53.596;9.972;2022-11-20T09:50:57;6.47;;;3.83;;
3587;SDS011;1808;53.596;9.972;2022-11-20T09:55:56;7.57;;;4.30;;
3587;SDS011;1808;53.596;9.972;2022-11-20T09:58:25;9.98;;;6.45;;
3587;SDS011;1808;53.596;9.972;2022-11-20T10:00:57;8.75;;;5.95;;
3587;SDS011;1808;53.596;9.972;2022-11-20T10:03:30;10.70;;;6.85;;
3587;SDS011;1808;53.596;9.972;2022-11-20T10:06:02;11.05;;;7.32;;
3587;SDS011;1808;53.596;9.972;2022-11-20T10:08:30;12.27;;;6.07;;
3587;SDS011;1808;53.596;9.972;2022-11-20T10:11:03;8.68;;;5.05;;
3587;SDS011;1808;53.596;9.972;2022-11-20T10:13:34;8.38;;;5.25;;
3587;SDS011;1808;53.596;9.972;2022-11-20T10:16:09;6.90;;;3.85;;
3587;SDS011;1808;53.596;9.972;2022-11-20T10:18:50;7.35;;;3.97;;
3587;SDS011;1808;53.596;9.972;2022-11-20T10:21:27;9.35;;;4.97;;
3587;SDS011;1808;53.596;9.972;2022-11-20T10:24:02;6.78;;;4.10;;
3587;SDS011;1808;53.596;9.972;2022-11-20T10:26:39;8.07;;;4.78;;
3587;SDS011;1808;53.596;9.972;2022-11-20T10:29:10;7.53;;;4.63;;
3587;SDS011;1808;53.596;9.972;2022-11-20T10:31:39;7.30;;;4.05;;
3587;SDS011;1808;53.596;9.972;2022-11-20T10:34:13;8.98;;;6.97;;
3587;SDS011;1808;53.596;9.972;2022-11-20T10:36:45;6.85;;;4.20;;
3587;SDS011;1808;53.596;9.972;2022-11-20T10:39:15;11.40;;;6.50;;
3587;SDS011;1808;53.596;9.972;2022-11-20T10:41:46;6.47;;;3.75;;
3587;SDS011;1808;53.596;9.972;2022-11-20T10:44:17;8.30;;;5.22;;
3587;SDS011;1808;53.596;9.972;2022-11-20T10:47:09;7.75;;;4.13;;
3587;SDS011;1808;53.596;9.972;2022-11-20T10:49:40;5.35;;;3.10;;
3587;SDS011;1808;53.596;9.972;2022-11-20T10:52:09;8.75;;;5.45;;
3587;SDS011;1808;53.596;9.972;2022-11-20T10:54:39;5.40;;;2.08;;
3587;SDS011;1808;53.596;9.972;2022-11-20T10:57:14;8.48;;;4.93;;
3587;SDS011;1808;53.596;9.972;2022-11-20T11:02:32;8.63;;;5.13;;
3587;SDS011;1808;53.596;9.972;2022-11-20T11:05:04;7.63;;;4.82;;
3587;SDS011;1808;53.596;9.972;2022-11-20T11:07:37;8.35;;;5.70;;
3587;SDS011;1808;53.596;9.972;2022-11-20T11:10:11;9.07;;;5.13;;
3587;SDS011;1808;53.596;9.972;2022-11-20T11:12:42;6.82;;;4.30;;
3587;SDS011;1808;53.596;9.972;2022-11-20T11:15:11;8.27;;;5.50;;
3587;SDS011;1808;53.596;9.972;2022-11-20T11:17:45;7.38;;;4.32;;
3587;SDS011;1808;53.596;9.972;2022-11-20T11:20:16;10.73;;;4.95;;
3587;SDS011;1808;53.596;9.972;2022-11-20T11:22:44;7.00;;;4.65;;
3587;SDS011;1808;53.596;9.972;2022-11-20T11:25:18;5.93;;;2.88;;
3587;SDS011;1808;53.596;9.972;2022-11-20T11:27:47;6.03;;;3.72;;
3587;SDS011;1808;53.596;9.972;2022-11-20T11:30:15;6.25;;;3.65;;
3587;SDS011;1808;53.596;9.972;2022-11-20T11:32:42;5.50;;;3.42;;
3587;SDS011;1808;53.596;9.972;2022-11-20T11:35:22;8.77;;;4.47;;
3587;SDS011;1808;53.596;9.972;2022-11-20T11:37:50;5.70;;;3.50;;
3587;SDS011;1808;53.596;9.972;2022-11-20T11:40:19;6.57;;;3.70;;
3587;SDS011;1808;53.596;9.972;2022-11-20T11:42:57;5.93;;;2.85;;
3587;SDS011;1808;53.596;9.972;2022-11-20T11:45:24;5.90;;;3.67;;
3587;SDS011;1808;53.596;9.972;2022-11-20T11:47:51;4.90;;;2.53;;
3587;SDS011;1808;53.596;9.972;2022-11-20T11:50:19;6.97;;;3.58;;
3587;SDS011;1808;53.596;9.972;2022-11-20T11:52:51;5.53;;;3.00;;
3587;SDS011;1808;53.596;9.972;2022-11-20T11:55:26;5.43;;;2.60;;
3587;SDS011;1808;53.596;9.972;2022-11-20T11:57:57;4.95;;;3.30;;
3587;SDS011;1808;53.596;9.972;2022-11-20T12:00:32;4.93;;;2.78;;
3587;SDS011;1808;53.596;9.972;2022-11-20T12:03:03;5.07;;;2.80;;
3587;SDS011;1808;53.596;9.972;2022-11-20T12:05:35;4.53;;;2.40;;
3587;SDS011;1808;53.596;9.972;2022-11-20T12:08:04;5.50;;;3.17;;
3587;SDS011;1808;53.596;9.972;2022-11-20T12:10:38;5.50;;;3.30;;
3587;SDS011;1808;53.596;9.972;2022-11-20T12:13:11;4.82;;;2.67;;
3587;SDS011;1808;53.596;9.972;2022-11-20T12:15:46;3.55;;;2.20;;
3587;SDS011;1808;53.596;9.972;2022-11-20T12:18:14;5.00;;;3.17;;
3587;SDS011;1808;53.596;9.972;2022-11-20T12:20:45;5.93;;;2.92;;
3587;SDS011;1808;53.596;9.972;2022-11-20T12:23:17;6.47;;;3.30;;
3587;SDS011;1808;53.596;9.972;2022-11-20T12:25:48;5.35;;;3.13;;
3587;SDS011;1808;53.596;9.972;2022-11-20T12:31:04;4.38;;;2.67;;
3587;SDS011;1808;53.596;9.972;2022-11-20T12:33:54;5.75;;;3.20;;
3587;SDS011;1808;53.596;9.972;2022-11-20T12:36:30;4.88;;;3.40;;
3587;SDS011;1808;53.596;9.972;2022-11-20T12:39:03;4.82;;;3.20;;
3587;SDS011;1808;53.596;9.972;2022-11-20T12:41:43;4.50;;;2.75;;
3587;SDS011;1808;53.596;9.972;2022-11-20T12:44:38;6.38;;;3.72;;
3587;SDS011;1808;53.596;9.972;2022-11-20T12:47:32;5.72;;;3.20;;
3587;SDS011;1808;53.596;9.972;2022-11-20T12:50:10;4.93;;;2.22;;
3587;SDS011;1808;53.596;9.972;2022-11-20T12:52:44;8.68;;;5.45;;
3587;SDS011;1808;53.596;9.972;2022-11-20T12:55:21;5.38;;;1.83;;
3587;SDS011;1808;53.596;9.972;2022-11-20T12:57:54;5.00;;;2.83;;
3587;SDS011;1808;53.596;9.972;2022-11-20T13:00:23;5.60;;;2.75;;
3587;SDS011;1808;53.596;9.972;2022-11-20T13:05:36;4.82;;;2.17;;
3587;SDS011;1808;53.596;9.972;2022-11-20T13:08:08;2.17;;;1.17;;
3587;SDS011;1808;53.596;9.972;2022-11-20T13:10:42;3.28;;;1.98;;
3587;SDS011;1808;53.596;9.972;2022-11-20T13:13:12;4.18;;;2.78;;
3587;SDS011;1808;53.596;9.972;2022-11-20T13:15:44;4.88;;;2.63;;
3587;SDS011;1808;53.596;9.972;2022-11-20T13:18:16;2.80;;;1.67;;
3587;SDS011;1808;53.596;9.972;2022-11-20T13:20:44;4.13;;;2.88;;
3587;SDS011;1808;53.596;9.972;2022-11-20T13:23:22;3.42;;;2.00;;
3587;SDS011;1808;53.596;9.972;2022-11-20T13:25:49;3.67;;;2.30;;
3587;SDS011;1808;53.596;9.972;2022-11-20T13:28:26;3.67;;;2.20;;
3587;SDS011;1808;53.596;9.972;2022-11-20T13:30:54;4.07;;;2.47;;
3587;SDS011;1808;53.596;9.972;2022-11-20T13:33:22;4.13;;;2.25;;
3587;SDS011;1808;53.596;9.972;2022-11-20T13:35:55;4.60;;;2.50;;
3587;SDS011;1808;53.596;9.972;2022-11-20T13:38:23;4.63;;;2.78;;
3587;SDS011;1808;53.596;9.972;2022-11-20T13:40:50;5.30;;;2.65;;
3587;SDS011;1808;53.596;9.972;2022-11-20T13:43:20;3.72;;;2.20;;
3587;SDS011;1808;53.596;9.972;2022-11-20T13:45:59;4.95;;;2.67;;
3587;SDS011;1808;53.596;9.972;2022-11-20T13:48:27;3.67;;;1.95;;
3587;SDS011;1808;53.596;9.972;2022-11-20T13:50:59;5.63;;;3.15;;
3587;SDS011;1808;53.596;9.972;2022-11-20T13:53:40;7.63;;;3.05;;
3587;SDS011;1808;53.596;9.972;2022-11-20T13:56:15;6.75;;;4.18;;
3587;SDS011;1808;53.596;9.972;2022-11-20T13:58:50;5.53;;;3.30;;
3587;SDS011;1808;53.596;9.972;2022-11-20T14:01:21;4.47;;;3.28;;
3587;SDS011;1808;53.596;9.972;2022-11-20T14:03:50;6.03;;;3.40;;
3587;SDS011;1808;53.596;9.972;2022-11-20T14:06:20;3.75;;;2.20;;
3587;SDS011;1808;53.596;9.972;2022-11-20T14:08:53;5.97;;;3.17;;
3587;SDS011;1808;53.596;9.972;2022-11-20T14:11:21;9.43;;;3.05;;
3587;SDS011;1808;53.596;9.972;2022-11-20T14:13:56;6.15;;;3.78;;
3587;SDS011;1808;53.596;9.972;2022-11-20T14:16:25;7.22;;;3.95;;
3587;SDS011;1808;53.596;9.972;2022-11-20T14:18:53;4.93;;;3.17;;
3587;SDS011;1808;53.596;9.972;2022-11-20T14:21:23;5.82;;;3.90;;
3587;SDS011;1808;53.596;9.972;2022-11-20T14:23:53;8.00;;;4.03;;
3587;SDS011;1808;53.596;9.972;2022-11-20T14:26:20;6.85;;;3.97;;
3587;SDS011;1808;53.596;9.972;2022-11-20T14:28:47;6.10;;;3.60;;
3587;SDS011;1808;53.596;9.972;2022-11-20T14:31:17;4.28;;;2.55;;
3587;SDS011;1808;53.596;9.972;2022-11-20T14:33:47;8.10;;;4.25;;
3587;SDS011;1808;53.596;9.972;2022-11-20T14:36:16;6.15;;;4.00;;
3587;SDS011;1808;53.596;9.972;2022-11-20T14:38:43;5.35;;;3.40;;
3587;SDS011;1808;53.596;9.972;2022-11-20T14:41:16;7.07;;;4.45;;
3587;SDS011;1808;53.596;9.972;2022-11-20T14:43:45;7.78;;;4.38;;
3587;SDS011;1808;53.596;9.972;2022-11-20T14:46:12;7.80;;;3.75;;
3587;SDS011;1808;53.596;9.972;2022-11-20T14:48:39;5.63;;;3.22;;
3587;SDS011;1808;53.596;9.972;2022-11-20T14:51:08;7.40;;;4.57;;
3587;SDS011;1808;53.596;9.972;2022-11-20T14:53:35;6.97;;;3.45;;
3587;SDS011;1808;53.596;9.972;2022-11-20T14:56:02;5.50;;;3.22;;
3587;SDS011;1808;53.596;9.972;2022-11-20T14:58:31;5.28;;;3.22;;
3587;SDS011;1808;53.596;9.972;2022-11-20T15:00:58;5.18;;;3.60;;
3587;SDS011;1808;53.596;9.972;2022-11-20T15:03:32;5.63;;;3.42;;
3587;SDS011;1808;53.596;9.972;2022-11-20T15:06:00;6.20;;;3.50;;
3587;SDS011;1808;53.596;9.972;2022-11-20T15:08:27;6.10;;;3.42;;
3587;SDS011;1808;53.596;9.972;2022-11-20T15:10:54;6.47;;;3.88;;
3587;SDS011;1808;53.596;9.972;2022-11-20T15:13:24;6.72;;;3.88;;
3587;SDS011;1808;53.596;9.972;2022-11-20T15:15:54;5.95;;;3.58;;
3587;SDS011;1808;53.596;9.972;2022-11-20T15:18:21;5.65;;;3.88;;
3587;SDS011;1808;53.596;9.972;2022-11-20T15:20:49;6.22;;;3.92;;
3587;SDS011;1808;53.596;9.972;2022-11-20T15:23:17;7.88;;;4.00;;
3587;SDS011;1808;53.596;9.972;2022-11-20T15:25:44;6.45;;;4.32;;
3587;SDS011;1808;53.596;9.972;2022-11-20T15:28:13;9.50;;;4.32;;
3587;SDS011;1808;53.596;9.972;2022-11-20T15:30:43;7.72;;;4.55;;
3587;SDS011;1808;53.596;9.972;2022-11-20T15:33:11;7.85;;;4.55;;